Etusivu
METAR-TAF:

METAR-TAF

Lentoasemat :

Grand Rapids/Itasca County Airport (Gordon Newstrom Field)

Grand Rapids, Minnesota, Yhdysvallat

Leveyspiiri: 47-13N, Pituuspiiri: 093-31W, korkeus merenpinnasta: 413 m

Tämänhetkinen sää

Tämä raportti tehtiin 14 minuuttia sitten, kello 12.56 UTC
Tuuli 4 kn koillisesta
Lämpötila 7°C
Kosteus 81%
Ilmanpaine 1019 hPa
Näkyvyys: 16.1 km
Muutamia pilviä 4600 ft:n korkeudessa
Hajanaisia pilviä 7000 ft:n korkeudessa
Pilvistä 8500 ft:n korkeudessa

METAR: KGPZ 271256Z AUTO 05004KT 10SM FEW046 SCT070 OVC085 07/04 A3010 RMK AO2 SLP201 T00670039

Aika: 08:10 (13:10 UTC)


TAF: puuttuu

Säähavainnot ja -ennusteet yli 4000 lentoasemalta (METAR- ja TAF-raportit).

Käytössä olevat sääasemat on merkitty karttaan keltaisilla ja punaisilla pisteillä.

Aseta hiiri pisteen päälle nähdäksesi sääaseman nimen.

Klikkaa sitten nähdäksesi säähavainnot ja -ennusteet.

Kartan vaihtaminen: klikkaa mustalla rastilla varustettuja vihreitä pisteitä, niin voit zoomata sisään; viivalla varustettua vihreää pistettä, niin voit zoomata ulos tai vihreitä nuolia, niin pääset viereisille kartoille.


METAR-TAF: